createdAt,value
2022-12-12T00:01:33.465Z,10.60
2022-12-12T00:04:02.340Z,10.50
2022-12-12T00:06:33.030Z,10.50
2022-12-12T00:09:02.159Z,11.60
2022-12-12T00:11:31.348Z,9.80
2022-12-12T00:14:00.270Z,9.30
2022-12-12T00:16:30.485Z,8.30
2022-12-12T00:18:59.372Z,9.00
2022-12-12T00:21:29.686Z,10.30
2022-12-12T00:23:58.881Z,8.40
2022-12-12T00:26:30.477Z,9.80
2022-12-12T00:29:01.536Z,8.90
2022-12-12T00:31:30.433Z,8.20
2022-12-12T00:33:59.667Z,9.60
2022-12-12T00:36:30.605Z,7.50
2022-12-12T00:39:00.227Z,8.60
2022-12-12T00:41:28.884Z,12.00
2022-12-12T00:44:00.143Z,11.70
2022-12-12T00:46:28.944Z,9.80
2022-12-12T00:48:59.161Z,10.60
2022-12-12T00:51:29.161Z,8.70
2022-12-12T00:53:58.882Z,12.30
2022-12-12T00:56:28.772Z,11.60
2022-12-12T00:58:57.680Z,10.00
2022-12-12T01:01:32.418Z,9.80
2022-12-12T01:04:01.517Z,9.30
2022-12-12T01:06:30.200Z,10.60
2022-12-12T01:08:58.962Z,10.30
2022-12-12T01:11:28.080Z,10.00
2022-12-12T01:13:57.685Z,11.10
2022-12-12T01:16:26.933Z,10.00
2022-12-12T01:18:56.082Z,10.70
2022-12-12T01:21:24.962Z,9.60
2022-12-12T01:23:53.442Z,10.50
2022-12-12T01:26:24.727Z,7.80
2022-12-12T01:28:54.018Z,10.30
2022-12-12T01:31:22.619Z,10.60
2022-12-12T01:33:51.666Z,10.40
2022-12-12T01:36:22.002Z,7.70
2022-12-12T01:38:53.642Z,9.70
2022-12-12T01:41:22.428Z,9.40
2022-12-12T01:43:51.333Z,9.50
2022-12-12T01:46:22.741Z,7.60
2022-12-12T01:49:05.259Z,9.40
2022-12-12T01:51:34.481Z,10.60
2022-12-12T01:54:09.637Z,8.90
2022-12-12T01:56:40.450Z,9.40
2022-12-12T01:59:12.239Z,11.20
2022-12-12T02:01:42.689Z,9.10
2022-12-12T02:04:12.562Z,9.30
2022-12-12T02:06:41.647Z,9.50
2022-12-12T02:09:12.663Z,8.60
2022-12-12T02:11:50.372Z,8.20
2022-12-12T02:14:22.773Z,9.70
2022-12-12T02:17:19.624Z,9.80
2022-12-12T02:20:12.980Z,10.60
2022-12-12T02:23:20.168Z,9.40
2022-12-12T02:26:08.393Z,8.80
2022-12-12T02:29:14.782Z,8.10
2022-12-12T02:32:03.024Z,11.30
2022-12-12T02:34:53.096Z,8.70
2022-12-12T02:37:38.160Z,8.50
2022-12-12T02:40:14.539Z,9.90
2022-12-12T02:42:53.982Z,10.10
2022-12-12T02:45:30.658Z,7.50
2022-12-12T02:48:28.422Z,11.60
2022-12-12T02:50:59.959Z,8.50
2022-12-12T02:53:28.563Z,9.10
2022-12-12T02:56:09.556Z,9.80
2022-12-12T02:58:39.027Z,9.00
2022-12-12T03:01:16.650Z,7.50
2022-12-12T03:04:13.881Z,6.60
2022-12-12T03:07:22.492Z,9.30
2022-12-12T03:10:01.392Z,7.60
2022-12-12T03:13:00.865Z,9.50
2022-12-12T03:15:51.183Z,7.30
2022-12-12T03:18:57.284Z,7.50
2022-12-12T03:21:40.616Z,10.50
2022-12-12T03:24:25.720Z,7.50
2022-12-12T03:27:11.283Z,7.90
2022-12-12T03:29:43.741Z,8.70
2022-12-12T03:32:17.790Z,10.40
2022-12-12T03:34:50.878Z,9.50
2022-12-12T03:37:23.422Z,8.50
2022-12-12T03:40:13.628Z,9.60
2022-12-12T03:42:53.756Z,8.60
2022-12-12T03:45:31.224Z,7.30
2022-12-12T03:48:10.302Z,8.80
2022-12-12T03:50:49.521Z,7.90
2022-12-12T03:53:34.470Z,8.70
2022-12-12T03:56:14.529Z,6.70
2022-12-12T03:58:49.621Z,8.80
2022-12-12T04:01:21.752Z,9.10
2022-12-12T04:03:56.784Z,8.30
2022-12-12T04:06:35.098Z,9.10
2022-12-12T04:09:28.663Z,9.10
2022-12-12T04:12:53.140Z,7.20
2022-12-12T04:15:34.021Z,8.40
2022-12-12T04:18:24.622Z,8.20
2022-12-12T04:21:27.702Z,6.20
2022-12-12T04:24:13.383Z,8.40
2022-12-12T04:27:08.687Z,8.10
2022-12-12T04:29:47.822Z,10.30
2022-12-12T04:32:41.023Z,8.60
2022-12-12T04:35:31.682Z,9.70
2022-12-12T04:38:06.211Z,10.40
2022-12-12T04:40:45.978Z,10.40
2022-12-12T04:43:21.600Z,8.30
2022-12-12T04:46:13.046Z,9.10
2022-12-12T04:49:09.282Z,10.10
2022-12-12T04:51:44.902Z,9.50
2022-12-12T04:54:42.873Z,10.30
2022-12-12T04:57:16.102Z,8.50
2022-12-12T04:59:45.677Z,10.80
2022-12-12T05:02:56.061Z,9.50
2022-12-12T05:06:05.174Z,8.30
2022-12-12T05:08:36.720Z,7.50
2022-12-12T05:11:07.162Z,7.70
2022-12-12T05:13:38.381Z,9.60
2022-12-12T05:16:25.883Z,8.90
2022-12-12T05:18:54.620Z,8.70
2022-12-12T05:21:23.720Z,7.00
2022-12-12T05:23:52.402Z,10.40
2022-12-12T05:26:28.540Z,6.60
2022-12-12T05:28:59.902Z,9.00
2022-12-12T05:31:32.488Z,9.70
2022-12-12T05:34:02.201Z,9.30
2022-12-12T05:36:30.971Z,10.50
2022-12-12T05:38:59.764Z,8.80
2022-12-12T05:41:29.061Z,7.70
2022-12-12T05:43:57.842Z,10.00
2022-12-12T05:46:26.598Z,7.90
2022-12-12T05:48:55.320Z,8.40
2022-12-12T05:51:24.020Z,8.20
2022-12-12T05:53:52.901Z,9.10
2022-12-12T05:56:21.809Z,9.40
2022-12-12T05:58:50.580Z,8.70
2022-12-12T06:01:19.586Z,7.20
2022-12-12T06:03:48.191Z,9.10
2022-12-12T06:06:18.032Z,8.40
2022-12-12T06:08:46.765Z,7.50
2022-12-12T06:11:15.586Z,7.90
2022-12-12T06:13:44.352Z,8.50
2022-12-12T06:16:19.374Z,7.20
2022-12-12T06:18:52.611Z,8.50
2022-12-12T06:21:22.493Z,7.20
2022-12-12T06:23:51.870Z,6.60
2022-12-12T06:26:21.469Z,8.90
2022-12-12T06:28:50.181Z,5.70
2022-12-12T06:31:19.194Z,8.10
2022-12-12T06:33:48.050Z,8.40
2022-12-12T06:36:25.977Z,9.40
2022-12-12T06:38:56.797Z,7.30
2022-12-12T06:41:27.322Z,9.00
2022-12-12T06:43:56.324Z,8.00
2022-12-12T06:46:27.456Z,6.50
2022-12-12T06:48:56.963Z,7.50
2022-12-12T06:51:29.581Z,7.20
2022-12-12T06:53:58.806Z,8.00
2022-12-12T06:56:28.258Z,6.40
2022-12-12T06:58:59.841Z,8.00
2022-12-12T07:01:29.033Z,7.80
2022-12-12T07:03:58.970Z,7.50
2022-12-12T07:06:27.582Z,8.20
2022-12-12T07:08:58.519Z,6.40
2022-12-12T07:11:28.496Z,8.00
2022-12-12T07:13:58.125Z,7.70
2022-12-12T07:16:27.084Z,7.90
2022-12-12T07:18:55.928Z,8.20
2022-12-12T07:21:25.023Z,6.80
2022-12-12T07:23:53.820Z,7.40
2022-12-12T07:26:23.640Z,8.30
2022-12-12T07:28:52.532Z,8.00
2022-12-12T07:31:23.225Z,7.20
2022-12-12T07:33:52.550Z,6.70
2022-12-12T07:36:21.547Z,7.50
2022-12-12T07:38:50.341Z,5.90
2022-12-12T07:41:21.210Z,9.10
2022-12-12T07:43:51.215Z,7.00
2022-12-12T07:46:23.326Z,6.70
2022-12-12T07:48:53.428Z,4.40
2022-12-12T07:51:23.219Z,5.90
2022-12-12T07:53:52.176Z,5.70
2022-12-12T07:56:23.100Z,8.10
2022-12-12T07:58:53.751Z,7.40
2022-12-12T08:01:25.001Z,6.20
2022-12-12T08:03:55.001Z,8.00
2022-12-12T08:06:24.400Z,7.40
2022-12-12T08:08:54.115Z,6.30
2022-12-12T08:11:24.598Z,6.60
2022-12-12T08:13:54.560Z,7.90
2022-12-12T08:16:28.270Z,6.70
2022-12-12T08:18:58.694Z,7.10
2022-12-12T08:21:28.100Z,6.50
2022-12-12T08:24:00.972Z,6.60
2022-12-12T08:26:31.395Z,5.90
2022-12-12T08:29:00.288Z,6.50
2022-12-12T08:31:29.531Z,6.70
2022-12-12T08:33:59.908Z,6.50
2022-12-12T08:36:30.990Z,7.70
2022-12-12T08:39:04.551Z,5.00
2022-12-12T08:41:35.507Z,6.90
2022-12-12T08:44:05.019Z,6.90
2022-12-12T08:46:33.941Z,6.20
2022-12-12T08:49:02.669Z,6.60
2022-12-12T08:51:31.563Z,7.10
2022-12-12T08:54:01.506Z,7.20
2022-12-12T08:56:30.381Z,8.40
2022-12-12T08:59:01.209Z,6.50
2022-12-12T09:01:29.931Z,6.00
2022-12-12T09:03:58.987Z,7.40
2022-12-12T09:06:27.982Z,7.80
2022-12-12T09:08:58.103Z,7.20
2022-12-12T09:11:27.005Z,6.00
2022-12-12T09:13:55.786Z,6.40
2022-12-12T09:16:26.993Z,5.70
2022-12-12T09:18:56.527Z,7.60
2022-12-12T09:21:25.420Z,6.40
2022-12-12T09:23:54.207Z,6.50
2022-12-12T09:26:24.321Z,5.10
2022-12-12T09:28:53.215Z,7.50
2022-12-12T09:31:22.131Z,5.10
2022-12-12T09:33:50.990Z,5.60
2022-12-12T09:36:19.888Z,7.10
2022-12-12T09:38:48.843Z,6.20
2022-12-12T09:41:27.391Z,5.60
2022-12-12T09:44:12.389Z,6.30
2022-12-12T09:46:42.486Z,5.60
2022-12-12T09:49:44.170Z,5.40
2022-12-12T09:52:31.338Z,4.40
2022-12-12T09:55:03.450Z,7.00
2022-12-12T09:57:46.561Z,7.00
2022-12-12T10:00:15.994Z,5.80
2022-12-12T10:03:11.796Z,6.10
2022-12-12T10:06:28.203Z,7.60
2022-12-12T10:09:08.448Z,4.60
2022-12-12T10:11:54.799Z,5.30
2022-12-12T10:14:45.235Z,5.80
2022-12-12T10:17:25.309Z,6.30
2022-12-12T10:20:00.425Z,6.30
2022-12-12T10:22:48.570Z,6.30
2022-12-12T10:25:24.857Z,4.70
2022-12-12T10:28:09.801Z,6.70
2022-12-12T10:30:52.297Z,6.00
2022-12-12T10:33:36.352Z,5.30
2022-12-12T10:36:30.676Z,5.40
2022-12-12T10:38:59.420Z,6.80
2022-12-12T10:41:43.573Z,5.40
2022-12-12T10:44:16.037Z,5.90
2022-12-12T10:46:57.230Z,5.10
2022-12-12T10:49:26.415Z,5.30
2022-12-12T10:51:56.543Z,4.90
2022-12-12T10:54:28.521Z,5.20
2022-12-12T10:57:16.530Z,6.30
2022-12-12T10:59:51.200Z,5.30
2022-12-12T11:02:39.566Z,6.30
2022-12-12T11:05:22.143Z,5.70
2022-12-12T11:08:03.725Z,6.20
2022-12-12T11:10:35.580Z,5.80
2022-12-12T11:13:10.204Z,5.50
2022-12-12T11:16:17.099Z,6.60
2022-12-12T11:19:05.569Z,6.20
2022-12-12T11:21:36.527Z,6.50
2022-12-12T11:24:08.643Z,5.70
2022-12-12T11:26:45.283Z,5.00
2022-12-12T11:29:38.925Z,4.60
2022-12-12T11:32:19.360Z,6.70
2022-12-12T11:34:54.281Z,5.60
2022-12-12T11:37:29.618Z,6.20
2022-12-12T11:39:58.703Z,4.00
2022-12-12T11:42:32.580Z,4.10
2022-12-12T11:45:07.787Z,6.10
2022-12-12T11:47:41.168Z,4.90
2022-12-12T11:50:28.177Z,4.50
2022-12-12T11:53:00.944Z,4.60
2022-12-12T11:55:44.887Z,4.90
2022-12-12T11:58:26.571Z,5.30
2022-12-12T12:01:12.017Z,4.40
2022-12-12T12:04:08.419Z,4.90
2022-12-12T12:06:42.818Z,4.40
2022-12-12T12:09:26.293Z,5.20
2022-12-12T12:12:14.687Z,5.20
2022-12-12T12:15:03.445Z,4.20
2022-12-12T12:17:51.081Z,4.80
2022-12-12T12:20:31.860Z,3.40
2022-12-12T12:23:19.983Z,4.00
2022-12-12T12:26:08.947Z,4.70
2022-12-12T12:28:53.916Z,3.70
2022-12-12T12:32:09.290Z,4.20
2022-12-12T12:35:04.500Z,3.90
2022-12-12T12:37:55.520Z,4.40
2022-12-12T12:40:36.688Z,5.30
2022-12-12T12:43:34.965Z,5.60
2022-12-12T12:46:24.275Z,3.60
2022-12-12T12:48:59.568Z,4.30
2022-12-12T12:51:33.116Z,5.00
2022-12-12T12:54:05.960Z,5.40
2022-12-12T12:56:52.573Z,4.70
2022-12-12T12:59:26.371Z,5.70
2022-12-12T13:01:57.368Z,4.20
2022-12-12T13:04:47.975Z,3.90
2022-12-12T13:07:37.479Z,4.80
2022-12-12T13:10:22.452Z,4.80
2022-12-12T13:13:12.046Z,6.40
2022-12-12T13:16:12.267Z,5.00
2022-12-12T13:18:45.910Z,3.80
2022-12-12T13:21:35.773Z,3.20
2022-12-12T13:24:26.865Z,5.30
2022-12-12T13:27:00.956Z,4.60
2022-12-12T13:29:37.827Z,4.20
2022-12-12T13:32:16.753Z,4.80
2022-12-12T13:34:47.571Z,5.10
2022-12-12T13:37:20.846Z,4.00
2022-12-12T13:40:05.340Z,3.70
2022-12-12T13:43:09.469Z,4.30
2022-12-12T13:45:40.796Z,3.40
2022-12-12T13:48:46.270Z,3.70
2022-12-12T13:51:28.060Z,3.50
2022-12-12T13:54:13.267Z,4.60
2022-12-12T13:56:47.816Z,4.00
2022-12-12T13:59:55.544Z,3.60
2022-12-12T14:02:36.794Z,3.90
2022-12-12T14:05:10.677Z,3.80
2022-12-12T14:07:40.134Z,3.90
2022-12-12T14:10:30.939Z,2.60
2022-12-12T14:13:25.228Z,3.40
2022-12-12T14:15:59.583Z,3.50
2022-12-12T14:18:40.418Z,3.60
2022-12-12T14:21:12.167Z,3.30
2022-12-12T14:23:43.213Z,2.70
2022-12-12T14:26:30.230Z,3.40
2022-12-12T14:29:17.569Z,3.70
2022-12-12T14:31:56.913Z,3.30
2022-12-12T14:34:38.082Z,3.50
2022-12-12T14:37:37.257Z,4.10
2022-12-12T14:40:21.731Z,2.40
2022-12-12T14:43:21.831Z,3.40
2022-12-12T14:45:51.670Z,3.80
2022-12-12T14:48:35.300Z,3.40
2022-12-12T14:51:16.477Z,2.90
2022-12-12T14:53:50.156Z,3.50
2022-12-12T14:56:28.395Z,3.10
2022-12-12T14:59:00.044Z,3.30
2022-12-12T15:01:49.713Z,3.10
2022-12-12T15:04:25.992Z,3.40
2022-12-12T15:07:05.627Z,3.40
2022-12-12T15:09:35.245Z,4.00
2022-12-12T15:12:14.769Z,3.70
2022-12-12T15:14:49.858Z,4.00
2022-12-12T15:17:31.798Z,3.90
2022-12-12T15:20:06.236Z,4.50
2022-12-12T15:22:38.769Z,4.20
2022-12-12T15:25:28.804Z,4.50
2022-12-12T15:27:58.395Z,4.50
2022-12-12T15:30:33.985Z,4.00
2022-12-12T15:33:05.328Z,3.30
2022-12-12T15:35:34.300Z,4.60
2022-12-12T15:38:06.099Z,3.50
2022-12-12T15:40:38.842Z,3.80
2022-12-12T15:43:20.524Z,3.80
2022-12-12T15:46:14.423Z,5.00
2022-12-12T15:48:44.659Z,4.00
2022-12-12T15:51:14.905Z,3.70
2022-12-12T15:53:50.678Z,3.20
2022-12-12T15:56:22.148Z,3.70
2022-12-12T15:58:53.968Z,3.50
2022-12-12T16:01:29.462Z,3.10
2022-12-12T16:04:06.781Z,3.90
2022-12-12T16:06:40.449Z,3.70
2022-12-12T16:09:18.022Z,4.10
2022-12-12T16:11:54.379Z,3.10
2022-12-12T16:14:40.836Z,3.40
2022-12-12T16:17:19.925Z,3.40
2022-12-12T16:19:54.761Z,2.80
2022-12-12T16:22:40.443Z,3.00
2022-12-12T16:25:25.921Z,3.60
2022-12-12T16:27:58.721Z,4.30
2022-12-12T16:30:28.621Z,4.10
2022-12-12T16:32:57.603Z,3.90
2022-12-12T16:35:26.179Z,4.50
2022-12-12T16:37:55.075Z,4.50
2022-12-12T16:40:24.067Z,3.30
2022-12-12T16:43:07.819Z,4.30
2022-12-12T16:45:40.462Z,3.60
2022-12-12T16:48:24.536Z,3.90
2022-12-12T16:50:58.781Z,3.50
2022-12-12T16:53:28.252Z,2.50
2022-12-12T16:55:58.156Z,3.10
2022-12-12T16:58:31.431Z,4.00
2022-12-12T17:01:03.161Z,4.40
2022-12-12T17:03:33.331Z,3.90
2022-12-12T17:06:02.971Z,3.70
2022-12-12T17:08:31.916Z,3.70
2022-12-12T17:11:10.027Z,4.60
2022-12-12T17:13:47.028Z,4.70
2022-12-12T17:16:16.280Z,3.80
2022-12-12T17:18:45.731Z,3.60
2022-12-12T17:21:15.443Z,4.20
2022-12-12T17:23:45.140Z,3.70
2022-12-12T17:26:15.350Z,3.30
2022-12-12T17:28:44.180Z,3.60
2022-12-12T17:31:14.192Z,3.80
2022-12-12T17:33:50.511Z,3.90
2022-12-12T17:36:20.473Z,3.50
2022-12-12T17:38:49.892Z,3.50
2022-12-12T17:41:20.380Z,3.30
2022-12-12T17:43:55.309Z,1.90
2022-12-12T17:46:25.766Z,3.00
2022-12-12T17:48:57.301Z,3.20
2022-12-12T17:51:27.120Z,3.00
2022-12-12T17:53:56.092Z,2.90
2022-12-12T17:56:26.026Z,2.60
2022-12-12T17:58:55.841Z,2.90
2022-12-12T18:01:31.875Z,2.80
2022-12-12T18:04:01.934Z,3.00
2022-12-12T18:06:34.126Z,2.30
2022-12-12T18:09:04.133Z,3.80
2022-12-12T18:11:36.758Z,3.80
2022-12-12T18:14:07.429Z,4.80
2022-12-12T18:16:37.206Z,3.50
2022-12-12T18:19:07.523Z,4.10
2022-12-12T18:24:31.459Z,3.70
2022-12-12T18:27:03.793Z,4.50
2022-12-12T18:29:33.908Z,3.90
2022-12-12T18:32:05.629Z,4.00
2022-12-12T18:34:37.065Z,4.10
2022-12-12T18:37:06.468Z,4.70
2022-12-12T18:39:37.563Z,4.70
2022-12-12T18:42:08.091Z,4.30
2022-12-12T18:44:37.700Z,4.50
2022-12-12T18:47:09.363Z,4.00
2022-12-12T18:49:42.747Z,3.60
2022-12-12T18:52:12.810Z,4.70
2022-12-12T18:54:43.000Z,3.50
2022-12-12T18:57:14.035Z,5.10
2022-12-12T18:59:45.299Z,3.90
2022-12-12T19:02:18.823Z,3.80
2022-12-12T19:04:51.025Z,4.30
2022-12-12T19:07:22.572Z,3.70
2022-12-12T19:09:54.061Z,4.70
2022-12-12T19:12:25.290Z,4.30
2022-12-12T19:17:47.807Z,3.90
2022-12-12T19:20:17.846Z,4.30
2022-12-12T19:22:51.199Z,4.00
2022-12-12T19:25:23.013Z,4.10
2022-12-12T19:27:54.702Z,3.20
2022-12-12T19:30:30.368Z,4.10
2022-12-12T19:33:02.568Z,3.70
2022-12-12T19:35:37.285Z,5.00
2022-12-12T19:38:07.819Z,4.80
2022-12-12T19:40:40.517Z,4.60
2022-12-12T19:43:11.618Z,4.00
2022-12-12T19:45:42.421Z,4.50
2022-12-12T19:48:12.958Z,4.70
2022-12-12T19:50:44.571Z,4.80
2022-12-12T19:53:16.637Z,3.10
2022-12-12T19:55:48.923Z,5.20
2022-12-12T19:58:22.189Z,5.20
2022-12-12T20:00:53.597Z,5.20
2022-12-12T20:03:25.361Z,4.80
2022-12-12T20:06:08.067Z,5.00
2022-12-12T20:08:39.522Z,5.90
2022-12-12T20:11:17.358Z,4.40
2022-12-12T20:13:53.713Z,4.90
2022-12-12T20:16:28.349Z,4.80
2022-12-12T20:19:00.317Z,5.20
2022-12-12T20:24:27.453Z,3.50
2022-12-12T20:27:00.479Z,4.80
2022-12-12T20:29:31.670Z,4.20
2022-12-12T20:32:02.141Z,3.50
2022-12-12T20:34:32.541Z,4.50
2022-12-12T20:37:02.686Z,4.50
2022-12-12T20:39:36.140Z,4.20
2022-12-12T20:42:06.433Z,4.30
2022-12-12T20:44:37.168Z,5.00
2022-12-12T20:47:08.687Z,3.80
2022-12-12T20:49:39.253Z,3.40
2022-12-12T20:52:12.332Z,3.70
2022-12-12T20:54:43.721Z,4.60
2022-12-12T20:57:14.185Z,4.60
2022-12-12T20:59:45.427Z,4.60
2022-12-12T21:02:16.594Z,4.20
2022-12-12T21:04:46.645Z,4.30
2022-12-12T21:07:18.972Z,3.80
2022-12-12T21:09:48.789Z,4.20
2022-12-12T21:12:18.479Z,3.40
2022-12-12T21:14:51.320Z,4.50
2022-12-12T21:17:22.079Z,3.70
2022-12-12T21:19:52.426Z,4.10
2022-12-12T21:22:21.689Z,3.20
2022-12-12T21:24:52.156Z,4.10
2022-12-12T21:27:21.101Z,3.20
2022-12-12T21:29:49.968Z,4.00
2022-12-12T21:32:18.862Z,4.10
2022-12-12T21:34:47.645Z,3.20
2022-12-12T21:37:16.943Z,3.40
2022-12-12T21:39:46.660Z,4.00
2022-12-12T21:42:15.360Z,4.10
2022-12-12T21:44:45.991Z,3.50
2022-12-12T21:47:15.946Z,3.00
2022-12-12T21:49:44.671Z,3.80
2022-12-12T21:52:15.513Z,3.20
2022-12-12T21:54:44.608Z,3.30
2022-12-12T21:57:13.504Z,4.10
2022-12-12T21:59:42.501Z,4.00
2022-12-12T22:02:13.961Z,3.10
2022-12-12T22:04:43.035Z,3.90
2022-12-12T22:07:12.694Z,4.20
2022-12-12T22:09:42.647Z,3.50
2022-12-12T22:12:26.219Z,3.40
2022-12-12T22:14:56.130Z,4.20
2022-12-12T22:17:24.900Z,3.30
2022-12-12T22:19:53.579Z,3.10
2022-12-12T22:22:22.281Z,4.00
2022-12-12T22:24:51.161Z,4.00
2022-12-12T22:27:19.741Z,4.40
2022-12-12T22:29:48.440Z,3.40
2022-12-12T22:32:17.322Z,2.60
2022-12-12T22:34:48.249Z,3.70
2022-12-12T22:37:16.844Z,3.00
2022-12-12T22:39:45.948Z,4.10
2022-12-12T22:42:14.524Z,4.70
2022-12-12T22:44:43.221Z,4.60
2022-12-12T22:47:12.377Z,4.20
2022-12-12T22:49:43.031Z,3.60
2022-12-12T22:52:11.727Z,3.20
2022-12-12T22:54:40.723Z,3.60
2022-12-12T22:57:09.294Z,3.80
2022-12-12T22:59:38.208Z,3.90
2022-12-12T23:02:06.969Z,3.70
2022-12-12T23:04:35.927Z,3.90
2022-12-12T23:07:04.860Z,3.50
2022-12-12T23:09:34.184Z,4.30
2022-12-12T23:12:02.761Z,4.70
2022-12-12T23:14:32.862Z,4.00
2022-12-12T23:17:01.639Z,4.30
2022-12-12T23:19:30.661Z,3.00
2022-12-12T23:21:59.362Z,4.30
2022-12-12T23:24:28.223Z,3.80
2022-12-12T23:26:56.694Z,4.40
2022-12-12T23:29:27.020Z,4.40
2022-12-12T23:31:58.937Z,3.10
2022-12-12T23:34:27.581Z,2.60
2022-12-12T23:36:57.386Z,3.20
2022-12-12T23:39:27.084Z,3.90
2022-12-12T23:41:56.085Z,4.20
2022-12-12T23:44:24.965Z,3.20
2022-12-12T23:46:53.650Z,4.10
2022-12-12T23:49:24.286Z,4.40
2022-12-12T23:51:56.074Z,3.60
2022-12-12T23:54:33.887Z,3.00
2022-12-12T23:57:03.856Z,3.40
2022-12-12T23:59:32.563Z,4.70
